createdAt,value
2018-07-20T00:00:00.000Z,98695
2018-07-20T00:05:00.000Z,98687
2018-07-20T00:10:00.000Z,98688
2018-07-20T00:15:00.000Z,98685
2018-07-20T00:20:00.000Z,98684
2018-07-20T00:25:00.000Z,98685
2018-07-20T00:30:00.000Z,98685
2018-07-20T00:35:00.000Z,98683
2018-07-20T00:40:00.000Z,98687
2018-07-20T00:45:00.000Z,98687
2018-07-20T00:50:00.000Z,98688
2018-07-20T00:55:00.000Z,98680
2018-07-20T01:00:00.000Z,98682
2018-07-20T01:05:00.000Z,98688
2018-07-20T01:10:00.000Z,98681
2018-07-20T01:15:00.000Z,98676
2018-07-20T01:20:00.000Z,98671
2018-07-20T01:25:00.000Z,98675
2018-07-20T01:30:00.000Z,98675
2018-07-20T01:35:00.000Z,98671
2018-07-20T01:40:00.000Z,98669
2018-07-20T01:45:00.000Z,98653
2018-07-20T01:50:00.000Z,98663
2018-07-20T01:55:00.000Z,98666
2018-07-20T02:00:00.000Z,98668
2018-07-20T02:05:00.000Z,98666
2018-07-20T02:10:00.000Z,98667
2018-07-20T02:15:00.000Z,98659
2018-07-20T02:20:00.000Z,98661
2018-07-20T02:25:00.000Z,98667
2018-07-20T02:30:00.000Z,98671
2018-07-20T02:35:00.000Z,98660
2018-07-20T02:40:00.000Z,98654
2018-07-20T02:45:00.000Z,98647
2018-07-20T02:50:00.000Z,98652
2018-07-20T02:55:00.000Z,98648
2018-07-20T03:00:00.000Z,98645
2018-07-20T03:05:00.000Z,98649
2018-07-20T03:10:00.000Z,98641
2018-07-20T03:15:00.000Z,98645
2018-07-20T03:20:00.000Z,98633
2018-07-20T03:25:00.000Z,98638
2018-07-20T03:30:00.000Z,98628
2018-07-20T03:35:00.000Z,98632
2018-07-20T03:40:00.000Z,98627
2018-07-20T03:45:00.000Z,98628
2018-07-20T03:50:00.000Z,98631
2018-07-20T03:55:00.000Z,98625
2018-07-20T04:00:00.000Z,98636
2018-07-20T04:05:00.000Z,98626
2018-07-20T04:10:00.000Z,98632
2018-07-20T04:15:00.000Z,98630
2018-07-20T04:20:00.000Z,98639
2018-07-20T04:25:00.000Z,98624
2018-07-20T04:30:00.000Z,98639
2018-07-20T04:35:00.000Z,98645
2018-07-20T04:40:00.000Z,98646
2018-07-20T04:45:00.000Z,98647
2018-07-20T04:50:00.000Z,98652
2018-07-20T04:55:00.000Z,98648
2018-07-20T05:00:00.000Z,98656
2018-07-20T05:05:00.000Z,98650
2018-07-20T05:11:00.000Z,98656
2018-07-20T05:16:00.000Z,98649
2018-07-20T05:21:00.000Z,98656
2018-07-20T05:26:00.000Z,98656
2018-07-20T05:31:00.000Z,98654
2018-07-20T05:36:00.000Z,98661
2018-07-20T05:41:00.000Z,98655
2018-07-20T05:46:00.000Z,98650
2018-07-20T05:51:00.000Z,98649
2018-07-20T05:56:00.000Z,98652
2018-07-20T06:01:00.000Z,98651
2018-07-20T06:06:00.000Z,98650
2018-07-20T06:11:00.000Z,98658
2018-07-20T06:16:00.000Z,98658
2018-07-20T06:21:00.000Z,98661
2018-07-20T06:26:00.000Z,98650
2018-07-20T06:31:00.000Z,98656
2018-07-20T06:36:00.000Z,98654
2018-07-20T06:41:00.000Z,98649
2018-07-20T06:46:00.000Z,98652
2018-07-20T06:51:00.000Z,98658
2018-07-20T06:56:00.000Z,98661
2018-07-20T07:01:00.000Z,98662
2018-07-20T07:06:00.000Z,98661
2018-07-20T07:11:00.000Z,98656
2018-07-20T07:16:00.000Z,98669
2018-07-20T07:21:00.000Z,98678
2018-07-20T07:26:00.000Z,98682
2018-07-20T07:31:00.000Z,98678
2018-07-20T07:36:00.000Z,98678
2018-07-20T07:41:00.000Z,98675
2018-07-20T07:46:00.000Z,98678
2018-07-20T07:51:00.000Z,98677
2018-07-20T07:56:00.000Z,98680
2018-07-20T08:01:00.000Z,98679
2018-07-20T08:06:00.000Z,98678
2018-07-20T08:11:00.000Z,98677
2018-07-20T08:16:00.000Z,98685
2018-07-20T08:21:00.000Z,98688
2018-07-20T08:26:00.000Z,98691
2018-07-20T08:31:00.000Z,98687
2018-07-20T08:36:00.000Z,98686
2018-07-20T08:41:00.000Z,98687
2018-07-20T09:09:00.000Z,98673
2018-07-20T09:14:00.000Z,98674
2018-07-20T09:19:00.000Z,98670
2018-07-20T09:24:00.000Z,98676
2018-07-20T09:29:00.000Z,98660
2018-07-20T09:34:00.000Z,98664
2018-07-20T09:39:00.000Z,98657
2018-07-20T09:44:00.000Z,98660
2018-07-20T09:49:00.000Z,98666
2018-07-20T09:54:00.000Z,98661
2018-07-20T09:59:00.000Z,98643
2018-07-20T10:04:00.000Z,98641
2018-07-20T10:09:00.000Z,98639
2018-07-20T10:14:00.000Z,98643
2018-07-20T10:19:00.000Z,98648
2018-07-20T10:24:00.000Z,98639
2018-07-20T10:29:00.000Z,98638
2018-07-20T10:34:00.000Z,98630
2018-07-20T10:39:00.000Z,98632
2018-07-20T10:44:00.000Z,98637
2018-07-20T10:49:00.000Z,98624
2018-07-20T10:54:00.000Z,98623
2018-07-20T10:59:00.000Z,98604
2018-07-20T11:04:00.000Z,98613
2018-07-20T11:09:00.000Z,98608
2018-07-20T11:14:00.000Z,98602
2018-07-20T11:19:00.000Z,98596
2018-07-20T11:24:00.000Z,98600
2018-07-20T11:29:00.000Z,98588
2018-07-20T11:34:00.000Z,98599
2018-07-20T11:39:00.000Z,98580
2018-07-20T11:44:00.000Z,98586
2018-07-20T11:49:00.000Z,98579
2018-07-20T11:54:00.000Z,98576
2018-07-20T11:59:00.000Z,98570
2018-07-20T12:04:00.000Z,98566
2018-07-20T12:09:00.000Z,98570
2018-07-20T12:14:00.000Z,98558
2018-07-20T12:19:00.000Z,98561
2018-07-20T12:24:00.000Z,98551
2018-07-20T12:29:00.000Z,98542
2018-07-20T12:34:00.000Z,98539
2018-07-20T12:39:00.000Z,98530
2018-07-20T12:44:00.000Z,98533
2018-07-20T12:49:00.000Z,98529
2018-07-20T12:54:00.000Z,98516
2018-07-20T13:00:00.000Z,98501
2018-07-20T13:05:00.000Z,98504
2018-07-20T13:10:00.000Z,98493
2018-07-20T13:15:00.000Z,98493
2018-07-20T13:20:00.000Z,98496
2018-07-20T13:25:00.000Z,98496
2018-07-20T13:30:00.000Z,98492
2018-07-20T13:35:00.000Z,98480
2018-07-20T13:40:00.000Z,98479
2018-07-20T13:45:00.000Z,98478
2018-07-20T13:50:00.000Z,98476
2018-07-20T13:55:00.000Z,98483
2018-07-20T14:00:00.000Z,98482
2018-07-20T14:05:00.000Z,98480
2018-07-20T14:10:00.000Z,98479
2018-07-20T14:15:00.000Z,98467
2018-07-20T14:20:00.000Z,98466
2018-07-20T14:25:00.000Z,98466
2018-07-20T14:30:00.000Z,98454
2018-07-20T14:35:00.000Z,98456
2018-07-20T14:40:00.000Z,98448
2018-07-20T14:45:00.000Z,98450
2018-07-20T14:50:00.000Z,98441
2018-07-20T14:55:00.000Z,98433
2018-07-20T15:00:00.000Z,98441
2018-07-20T15:05:00.000Z,98437
2018-07-20T15:10:00.000Z,98444
2018-07-20T15:15:00.000Z,98445
2018-07-20T15:20:00.000Z,98431
2018-07-20T15:25:00.000Z,98418
2018-07-20T15:30:00.000Z,98407
2018-07-20T15:35:00.000Z,98404
2018-07-20T15:40:00.000Z,98397
2018-07-20T15:45:00.000Z,98393
2018-07-20T15:50:00.000Z,98384
2018-07-20T15:55:00.000Z,98386
2018-07-20T16:00:00.000Z,98380
2018-07-20T16:05:00.000Z,98384
2018-07-20T16:10:00.000Z,98381
2018-07-20T16:15:00.000Z,98386
2018-07-20T16:20:00.000Z,98373
2018-07-20T16:25:00.000Z,98374
2018-07-20T16:30:00.000Z,98381
2018-07-20T16:35:00.000Z,98382
2018-07-20T16:40:00.000Z,98389
2018-07-20T16:45:00.000Z,98395
2018-07-20T16:50:00.000Z,98381
2018-07-20T16:55:00.000Z,98391
2018-07-20T17:00:00.000Z,98384
2018-07-20T17:05:00.000Z,98386
2018-07-20T17:10:00.000Z,98386
2018-07-20T17:15:00.000Z,98377
2018-07-20T17:20:00.000Z,98379
2018-07-20T17:25:00.000Z,98378
2018-07-20T17:30:00.000Z,98384
2018-07-20T17:35:00.000Z,98383
2018-07-20T17:40:00.000Z,98388
2018-07-20T17:45:00.000Z,98385
2018-07-20T17:50:00.000Z,98377
2018-07-20T17:55:00.000Z,98380
2018-07-20T18:00:00.000Z,98381
2018-07-20T18:05:00.000Z,98374
2018-07-20T18:10:00.000Z,98377
2018-07-20T18:15:00.000Z,98379
2018-07-20T18:20:00.000Z,98378
2018-07-20T18:25:00.000Z,98383
2018-07-20T18:30:00.000Z,98391
2018-07-20T18:35:00.000Z,98405
2018-07-20T18:40:00.000Z,98408
2018-07-20T18:45:00.000Z,98404
2018-07-20T18:50:00.000Z,98406
2018-07-20T18:55:00.000Z,98416
2018-07-20T19:01:00.000Z,98422
2018-07-20T19:06:00.000Z,98414
2018-07-20T19:11:00.000Z,98427
2018-07-20T19:16:00.000Z,98425
2018-07-20T19:21:00.000Z,98436
2018-07-20T19:26:00.000Z,98428
2018-07-20T19:31:00.000Z,98435
2018-07-20T19:36:00.000Z,98425
2018-07-20T19:41:00.000Z,98425
2018-07-20T19:46:00.000Z,98427
2018-07-20T19:51:00.000Z,98427
2018-07-20T19:56:00.000Z,98427
2018-07-20T20:01:00.000Z,98424
2018-07-20T20:06:00.000Z,98429
2018-07-20T20:11:00.000Z,98431
2018-07-20T20:16:00.000Z,98433
2018-07-20T20:21:00.000Z,98430
2018-07-20T20:26:00.000Z,98419
2018-07-20T20:31:00.000Z,98427
2018-07-20T20:36:00.000Z,98426
2018-07-20T20:41:00.000Z,98421
2018-07-20T20:46:00.000Z,98424
2018-07-20T20:51:00.000Z,98424
2018-07-20T20:56:00.000Z,98414
2018-07-20T21:01:00.000Z,98417
2018-07-20T21:06:00.000Z,98423
2018-07-20T21:11:00.000Z,98416
2018-07-20T21:16:00.000Z,98417
2018-07-20T21:21:00.000Z,98411
2018-07-20T21:26:00.000Z,98403
2018-07-20T21:31:00.000Z,98406
2018-07-20T21:36:00.000Z,98407
2018-07-20T21:41:00.000Z,98412
2018-07-20T21:46:00.000Z,98406
2018-07-20T21:51:00.000Z,98405
2018-07-20T21:56:00.000Z,98411
2018-07-20T22:01:00.000Z,98415
2018-07-20T22:06:00.000Z,98419
2018-07-20T22:11:00.000Z,98406
2018-07-20T22:16:00.000Z,98410
2018-07-20T22:21:00.000Z,98405
2018-07-20T22:26:00.000Z,98410
2018-07-20T22:31:00.000Z,98409
2018-07-20T22:36:00.000Z,98402
2018-07-20T22:41:00.000Z,98402
2018-07-20T22:46:00.000Z,98403
2018-07-20T22:51:00.000Z,98408
2018-07-20T22:56:00.000Z,98410
2018-07-20T23:01:00.000Z,98407
2018-07-20T23:06:00.000Z,98416
2018-07-20T23:11:00.000Z,98415
2018-07-20T23:16:00.000Z,98395
2018-07-20T23:21:00.000Z,98405
2018-07-20T23:26:00.000Z,98408
2018-07-20T23:31:00.000Z,98413
2018-07-20T23:36:00.000Z,98421
2018-07-20T23:41:00.000Z,98418
2018-07-20T23:46:00.000Z,98418
2018-07-20T23:51:00.000Z,98412
2018-07-20T23:56:00.000Z,98413
